sensor_id;sensor_type;location;lat;lon;timestamp;noise_LAeq;noise_LA_min;noise_LA_max;noise_LA01;noise_LA95
60116;Laerm;62818;49.394;8.686;2023-03-25T00:00:17;85.60;42.65;106.92;;
60116;Laerm;62818;49.394;8.686;2023-03-25T00:01:18;85.59;42.53;106.89;;
60116;Laerm;62818;49.394;8.686;2023-03-25T00:02:21;85.66;42.53;107.12;;
60116;Laerm;62818;49.394;8.686;2023-03-25T00:03:31;84.04;42.59;107.22;;
60116;Laerm;62818;49.394;8.686;2023-03-25T00:04:34;84.42;43.14;106.68;;
60116;Laerm;62818;49.394;8.686;2023-03-25T00:05:41;84.43;42.29;107.22;;
60116;Laerm;62818;49.394;8.686;2023-03-25T00:06:42;84.03;42.65;107.13;;
60116;Laerm;62818;49.394;8.686;2023-03-25T00:07:44;85.29;42.19;107.17;;
60116;Laerm;62818;49.394;8.686;2023-03-25T00:08:45;85.89;43.04;106.71;;
60116;Laerm;62818;49.394;8.686;2023-03-25T00:09:46;85.83;41.96;106.30;;
60116;Laerm;62818;49.394;8.686;2023-03-25T00:10:56;85.41;42.22;107.47;;
60116;Laerm;62818;49.394;8.686;2023-03-25T00:11:57;84.28;43.39;106.97;;
60116;Laerm;62818;49.394;8.686;2023-03-25T00:12:57;84.81;42.30;106.38;;
60116;Laerm;62818;49.394;8.686;2023-03-25T00:14:04;85.21;42.22;106.69;;
60116;Laerm;62818;49.394;8.686;2023-03-25T00:15:07;85.54;43.05;106.82;;
60116;Laerm;62818;49.394;8.686;2023-03-25T00:16:08;85.85;42.82;107.03;;
60116;Laerm;62818;49.394;8.686;2023-03-25T00:17:09;85.76;41.82;106.84;;
60116;Laerm;62818;49.394;8.686;2023-03-25T00:18:11;84.19;41.75;106.65;;
60116;Laerm;62818;49.394;8.686;2023-03-25T00:19:11;84.57;42.65;106.88;;
60116;Laerm;62818;49.394;8.686;2023-03-25T00:20:12;85.77;42.22;107.28;;
60116;Laerm;62818;49.394;8.686;2023-03-25T00:21:13;84.25;42.47;105.91;;
60116;Laerm;62818;49.394;8.686;2023-03-25T00:22:14;85.71;41.14;106.81;;
60116;Laerm;62818;49.394;8.686;2023-03-25T00:23:16;85.39;41.22;106.76;;
60116;Laerm;62818;49.394;8.686;2023-03-25T00:24:17;84.45;42.41;106.28;;
60116;Laerm;62818;49.394;8.686;2023-03-25T00:25:18;84.23;43.14;106.75;;
60116;Laerm;62818;49.394;8.686;2023-03-25T00:26:19;85.74;41.75;107.04;;
60116;Laerm;62818;49.394;8.686;2023-03-25T00:27:20;84.50;41.75;107.07;;
60116;Laerm;62818;49.394;8.686;2023-03-25T00:28:20;84.18;42.93;105.98;;
60116;Laerm;62818;49.394;8.686;2023-03-25T00:29:21;86.52;43.09;106.72;;
60116;Laerm;62818;49.394;8.686;2023-03-25T00:30:21;84.35;42.03;106.53;;
60116;Laerm;62818;49.394;8.686;2023-03-25T00:31:22;84.25;43.86;106.09;;
60116;Laerm;62818;49.394;8.686;2023-03-25T00:32:22;84.37;42.59;106.08;;
60116;Laerm;62818;49.394;8.686;2023-03-25T00:33:23;84.26;42.29;107.25;;
60116;Laerm;62818;49.394;8.686;2023-03-25T00:34:23;86.04;42.16;107.21;;
60116;Laerm;62818;49.394;8.686;2023-03-25T00:35:24;85.14;42.22;106.74;;
60116;Laerm;62818;49.394;8.686;2023-03-25T00:36:25;84.74;42.53;106.15;;
60116;Laerm;62818;49.394;8.686;2023-03-25T00:37:25;85.70;40.89;107.09;;
60116;Laerm;62818;49.394;8.686;2023-03-25T00:38:29;85.29;41.89;106.70;;
60116;Laerm;62818;49.394;8.686;2023-03-25T00:39:33;84.21;41.89;106.59;;
60116;Laerm;62818;49.394;8.686;2023-03-25T00:40:34;84.16;42.03;107.10;;
60116;Laerm;62818;49.394;8.686;2023-03-25T00:41:35;84.52;41.61;105.87;;
60116;Laerm;62818;49.394;8.686;2023-03-25T00:42:36;85.75;42.16;106.67;;
60116;Laerm;62818;49.394;8.686;2023-03-25T00:43:37;85.74;43.19;107.09;;
60116;Laerm;62818;49.394;8.686;2023-03-25T00:44:38;84.58;42.59;107.19;;
60116;Laerm;62818;49.394;8.686;2023-03-25T00:45:39;85.33;43.04;106.87;;
60116;Laerm;62818;49.394;8.686;2023-03-25T00:46:39;84.33;43.14;106.81;;
60116;Laerm;62818;49.394;8.686;2023-03-25T00:47:40;84.33;42.22;107.05;;
60116;Laerm;62818;49.394;8.686;2023-03-25T00:48:41;85.76;42.03;107.39;;
60116;Laerm;62818;49.394;8.686;2023-03-25T00:49:42;51.64;41.22;64.14;;
60116;Laerm;62818;49.394;8.686;2023-03-25T00:50:42;86.57;42.93;107.09;;
60116;Laerm;62818;49.394;8.686;2023-03-25T00:51:43;85.97;42.93;107.27;;
60116;Laerm;62818;49.394;8.686;2023-03-25T00:52:44;84.63;43.14;106.10;;
60116;Laerm;62818;49.394;8.686;2023-03-25T00:53:45;85.71;42.53;107.30;;
60116;Laerm;62818;49.394;8.686;2023-03-25T00:54:46;85.89;43.29;106.94;;
60116;Laerm;62818;49.394;8.686;2023-03-25T00:55:46;84.24;41.75;106.82;;
60116;Laerm;62818;49.394;8.686;2023-03-25T00:56:49;84.38;42.88;107.02;;
60116;Laerm;62818;49.394;8.686;2023-03-25T00:57:50;84.50;44.07;106.41;;
60116;Laerm;62818;49.394;8.686;2023-03-25T00:58:50;86.71;42.65;107.23;;
60116;Laerm;62818;49.394;8.686;2023-03-25T00:59:51;86.03;41.82;106.83;;
60116;Laerm;62818;49.394;8.686;2023-03-25T01:00:51;84.43;41.38;106.30;;
60116;Laerm;62818;49.394;8.686;2023-03-25T01:01:52;84.55;40.89;106.97;;
60116;Laerm;62818;49.394;8.686;2023-03-25T01:02:55;82.40;42.41;107.35;;
60116;Laerm;62818;49.394;8.686;2023-03-25T01:03:57;85.73;42.47;107.38;;
60116;Laerm;62818;49.394;8.686;2023-03-25T01:04:59;84.63;41.75;107.58;;
60116;Laerm;62818;49.394;8.686;2023-03-25T01:05:59;84.53;41.75;106.84;;
60116;Laerm;62818;49.394;8.686;2023-03-25T01:07:00;84.62;41.82;107.58;;
60116;Laerm;62818;49.394;8.686;2023-03-25T01:08:00;84.64;42.03;107.23;;
60116;Laerm;62818;49.394;8.686;2023-03-25T01:09:05;85.47;42.65;106.23;;
60116;Laerm;62818;49.394;8.686;2023-03-25T01:10:07;84.04;42.41;107.33;;
60116;Laerm;62818;49.394;8.686;2023-03-25T01:11:21;85.18;42.41;107.79;;
60116;Laerm;62818;49.394;8.686;2023-03-25T01:12:21;84.16;43.86;107.21;;
60116;Laerm;62818;49.394;8.686;2023-03-25T01:13:23;84.55;44.83;107.42;;
60116;Laerm;62818;49.394;8.686;2023-03-25T01:14:24;84.50;45.72;106.25;;
60116;Laerm;62818;49.394;8.686;2023-03-25T01:15:26;84.52;44.58;106.89;;
60116;Laerm;62818;49.394;8.686;2023-03-25T01:16:28;84.70;44.73;107.70;;
60116;Laerm;62818;49.394;8.686;2023-03-25T01:17:28;50.06;44.65;60.65;;
60116;Laerm;62818;49.394;8.686;2023-03-25T01:18:29;79.39;45.01;90.15;;
60116;Laerm;62818;49.394;8.686;2023-03-25T01:19:34;85.92;44.76;107.58;;
60116;Laerm;62818;49.394;8.686;2023-03-25T01:20:34;86.32;44.43;107.40;;
60116;Laerm;62818;49.394;8.686;2023-03-25T01:21:35;82.78;44.83;106.90;;
60116;Laerm;62818;49.394;8.686;2023-03-25T01:22:36;84.64;44.54;107.18;;
60116;Laerm;62818;49.394;8.686;2023-03-25T01:23:37;84.72;44.69;107.09;;
60116;Laerm;62818;49.394;8.686;2023-03-25T01:24:38;86.19;44.54;107.94;;
60116;Laerm;62818;49.394;8.686;2023-03-25T01:25:38;84.81;44.35;107.14;;
60116;Laerm;62818;49.394;8.686;2023-03-25T01:26:39;84.68;44.23;107.58;;
60116;Laerm;62818;49.394;8.686;2023-03-25T01:27:43;85.86;44.51;107.39;;
60116;Laerm;62818;49.394;8.686;2023-03-25T01:28:44;84.69;44.90;106.93;;
60116;Laerm;62818;49.394;8.686;2023-03-25T01:29:44;85.58;44.80;106.82;;
60116;Laerm;62818;49.394;8.686;2023-03-25T01:30:45;84.92;44.43;107.45;;
60116;Laerm;62818;49.394;8.686;2023-03-25T01:31:47;84.65;45.14;106.76;;
60116;Laerm;62818;49.394;8.686;2023-03-25T01:32:48;85.51;44.97;107.07;;
60116;Laerm;62818;49.394;8.686;2023-03-25T01:33:48;86.08;44.39;107.56;;
60116;Laerm;62818;49.394;8.686;2023-03-25T01:34:49;84.41;44.69;107.39;;
60116;Laerm;62818;49.394;8.686;2023-03-25T01:35:49;84.75;45.01;107.36;;
60116;Laerm;62818;49.394;8.686;2023-03-25T01:36:50;85.97;45.75;106.98;;
60116;Laerm;62818;49.394;8.686;2023-03-25T01:37:54;85.94;44.97;107.19;;
60116;Laerm;62818;49.394;8.686;2023-03-25T01:38:57;85.85;44.35;107.62;;
60116;Laerm;62818;49.394;8.686;2023-03-25T01:39:58;84.80;44.43;107.05;;
60116;Laerm;62818;49.394;8.686;2023-03-25T01:40:59;84.30;44.58;107.20;;
60116;Laerm;62818;49.394;8.686;2023-03-25T01:41:59;86.15;44.54;106.72;;
60116;Laerm;62818;49.394;8.686;2023-03-25T01:43:00;86.00;44.69;107.48;;
60116;Laerm;62818;49.394;8.686;2023-03-25T01:44:06;84.36;44.43;106.10;;
60116;Laerm;62818;49.394;8.686;2023-03-25T01:46:26;85.66;45.66;107.11;;
60116;Laerm;62818;49.394;8.686;2023-03-25T01:47:26;86.01;45.48;107.35;;
60116;Laerm;62818;49.394;8.686;2023-03-25T01:48:34;84.23;45.66;106.45;;
60116;Laerm;62818;49.394;8.686;2023-03-25T01:49:43;84.20;45.39;106.55;;
60116;Laerm;62818;49.394;8.686;2023-03-25T01:50:57;83.87;44.87;106.56;;
60116;Laerm;62818;49.394;8.686;2023-03-25T01:52:06;85.84;44.87;107.38;;
60116;Laerm;62818;49.394;8.686;2023-03-25T01:53:09;85.64;45.04;107.26;;
60116;Laerm;62818;49.394;8.686;2023-03-25T01:54:12;85.57;45.57;107.26;;
60116;Laerm;62818;49.394;8.686;2023-03-25T01:55:17;85.80;45.91;107.19;;
60116;Laerm;62818;49.394;8.686;2023-03-25T01:56:26;85.61;44.73;107.37;;
60116;Laerm;62818;49.394;8.686;2023-03-25T01:57:30;85.91;44.80;107.41;;
60116;Laerm;62818;49.394;8.686;2023-03-25T01:58:34;82.11;45.33;107.23;;
60116;Laerm;62818;49.394;8.686;2023-03-25T01:59:37;86.67;47.14;107.49;;
60116;Laerm;62818;49.394;8.686;2023-03-25T02:00:40;85.93;47.24;107.73;;
60116;Laerm;62818;49.394;8.686;2023-03-25T02:01:45;85.57;47.65;107.20;;
60116;Laerm;62818;49.394;8.686;2023-03-25T02:02:46;85.97;47.67;107.20;;
60116;Laerm;62818;49.394;8.686;2023-03-25T02:03:52;84.13;48.08;106.10;;
60116;Laerm;62818;49.394;8.686;2023-03-25T02:05:20;84.82;49.78;106.97;;
60116;Laerm;62818;49.394;8.686;2023-03-25T02:06:31;84.46;48.78;107.33;;
60116;Laerm;62818;49.394;8.686;2023-03-25T02:07:37;85.79;50.47;106.76;;
60116;Laerm;62818;49.394;8.686;2023-03-25T02:08:42;84.80;50.49;106.76;;
60116;Laerm;62818;49.394;8.686;2023-03-25T02:09:43;85.26;52.90;106.93;;
60116;Laerm;62818;49.394;8.686;2023-03-25T02:10:45;86.72;49.66;107.47;;
60116;Laerm;62818;49.394;8.686;2023-03-25T02:11:47;86.90;51.09;107.07;;
60116;Laerm;62818;49.394;8.686;2023-03-25T02:12:48;86.95;48.80;107.58;;
60116;Laerm;62818;49.394;8.686;2023-03-25T02:13:49;87.25;48.07;107.44;;
60116;Laerm;62818;49.394;8.686;2023-03-25T02:14:49;86.38;46.93;107.72;;
60116;Laerm;62818;49.394;8.686;2023-03-25T02:17:56;83.84;45.80;107.54;;
60116;Laerm;62818;49.394;8.686;2023-03-25T02:24:35;86.50;44.69;107.77;;
60116;Laerm;62818;49.394;8.686;2023-03-25T02:27:55;86.09;42.03;107.48;;
60116;Laerm;62818;49.394;8.686;2023-03-25T02:32:31;85.61;41.82;108.00;;
60116;Laerm;62818;49.394;8.686;2023-03-25T02:40:05;84.82;35.36;107.95;;
60116;Laerm;62818;49.394;8.686;2023-03-25T02:41:22;78.33;23.90;88.58;;
60116;Laerm;62818;49.394;8.686;2023-03-25T02:42:39;87.52;42.22;107.95;;
60116;Laerm;62818;49.394;8.686;2023-03-25T02:44:10;86.40;41.68;108.41;;
60116;Laerm;62818;49.394;8.686;2023-03-25T02:45:22;85.23;42.16;107.53;;
60116;Laerm;62818;49.394;8.686;2023-03-25T02:46:25;87.53;40.88;108.16;;
60116;Laerm;62818;49.394;8.686;2023-03-25T02:47:36;87.30;42.22;108.07;;
60116;Laerm;62818;49.394;8.686;2023-03-25T02:49:02;84.99;42.29;107.76;;
60116;Laerm;62818;49.394;8.686;2023-03-25T02:50:21;85.88;44.62;108.08;;
60116;Laerm;62818;49.394;8.686;2023-03-25T02:51:30;86.61;44.69;107.82;;
60116;Laerm;62818;49.394;8.686;2023-03-25T02:52:43;86.61;44.73;107.18;;
60116;Laerm;62818;49.394;8.686;2023-03-25T02:53:48;87.19;44.76;108.14;;
60116;Laerm;62818;49.394;8.686;2023-03-25T02:54:54;87.14;45.66;107.64;;
60116;Laerm;62818;49.394;8.686;2023-03-25T02:56:05;86.07;45.07;107.52;;
60116;Laerm;62818;49.394;8.686;2023-03-25T02:57:13;86.84;44.80;107.88;;
60116;Laerm;62818;49.394;8.686;2023-03-25T02:58:18;87.04;44.76;107.71;;
60116;Laerm;62818;49.394;8.686;2023-03-25T02:59:20;88.11;44.58;108.04;;
60116;Laerm;62818;49.394;8.686;2023-03-25T03:00:25;87.07;44.80;107.58;;
60116;Laerm;62818;49.394;8.686;2023-03-25T03:01:27;88.25;44.39;107.89;;
60116;Laerm;62818;49.394;8.686;2023-03-25T03:02:29;88.04;44.51;108.05;;
60116;Laerm;62818;49.394;8.686;2023-03-25T03:03:31;86.47;44.27;107.45;;
60116;Laerm;62818;49.394;8.686;2023-03-25T03:04:32;88.05;44.58;107.81;;
60116;Laerm;62818;49.394;8.686;2023-03-25T03:05:44;85.88;45.07;108.00;;
60116;Laerm;62818;49.394;8.686;2023-03-25T03:06:47;87.27;44.92;107.64;;
60116;Laerm;62818;49.394;8.686;2023-03-25T03:07:58;86.88;44.87;107.83;;
60116;Laerm;62818;49.394;8.686;2023-03-25T03:09:34;85.73;45.17;107.98;;
60116;Laerm;62818;49.394;8.686;2023-03-25T03:13:24;86.07;44.80;108.13;;
60116;Laerm;62818;49.394;8.686;2023-03-25T03:15:05;85.77;44.80;108.11;;
60116;Laerm;62818;49.394;8.686;2023-03-25T03:20:37;85.67;44.51;108.14;;
60116;Laerm;62818;49.394;8.686;2023-03-25T03:21:45;86.60;44.35;108.13;;
60116;Laerm;62818;49.394;8.686;2023-03-25T03:23:05;86.46;44.58;107.66;;
60116;Laerm;62818;49.394;8.686;2023-03-25T03:24:30;87.02;44.69;107.97;;
60116;Laerm;62818;49.394;8.686;2023-03-25T03:26:54;85.98;44.34;107.74;;
60116;Laerm;62818;49.394;8.686;2023-03-25T03:28:09;86.95;44.47;107.72;;
60116;Laerm;62818;49.394;8.686;2023-03-25T03:29:32;86.08;44.39;107.89;;
60116;Laerm;62818;49.394;8.686;2023-03-25T03:30:48;78.55;44.47;88.38;;
60116;Laerm;62818;49.394;8.686;2023-03-25T03:33:41;86.55;45.01;108.02;;
60116;Laerm;62818;49.394;8.686;2023-03-25T03:35:02;78.06;46.13;88.68;;
60116;Laerm;62818;49.394;8.686;2023-03-25T03:36:15;78.90;45.63;88.31;;
60116;Laerm;62818;49.394;8.686;2023-03-25T03:37:37;86.99;44.79;107.70;;
60116;Laerm;62818;49.394;8.686;2023-03-25T03:39:30;85.69;44.27;108.24;;
60116;Laerm;62818;49.394;8.686;2023-03-25T03:40:35;87.88;44.52;107.78;;
60116;Laerm;62818;49.394;8.686;2023-03-25T03:41:41;88.07;44.54;108.37;;
60116;Laerm;62818;49.394;8.686;2023-03-25T03:43:04;87.48;44.83;107.82;;
60116;Laerm;62818;49.394;8.686;2023-03-25T03:44:13;86.86;45.07;108.02;;
60116;Laerm;62818;49.394;8.686;2023-03-25T03:45:21;87.26;44.92;108.07;;
60116;Laerm;62818;49.394;8.686;2023-03-25T03:46:34;88.01;44.83;108.26;;
60116;Laerm;62818;49.394;8.686;2023-03-25T03:47:45;78.74;44.69;88.13;;
60116;Laerm;62818;49.394;8.686;2023-03-25T03:48:54;85.66;44.80;107.85;;
60116;Laerm;62818;49.394;8.686;2023-03-25T03:50:07;86.26;44.65;108.31;;
60116;Laerm;62818;49.394;8.686;2023-03-25T03:51:14;88.12;44.65;108.12;;
60116;Laerm;62818;49.394;8.686;2023-03-25T03:52:24;78.42;44.87;88.16;;
60116;Laerm;62818;49.394;8.686;2023-03-25T03:53:41;87.10;44.90;107.82;;
60116;Laerm;62818;49.394;8.686;2023-03-25T03:54:55;86.95;44.80;107.79;;
60116;Laerm;62818;49.394;8.686;2023-03-25T03:56:10;87.99;44.83;108.42;;
60116;Laerm;62818;49.394;8.686;2023-03-25T03:57:26;83.92;44.65;107.11;;
60116;Laerm;62818;49.394;8.686;2023-03-25T03:58:35;88.14;44.47;108.25;;
60116;Laerm;62818;49.394;8.686;2023-03-25T03:59:41;87.42;44.83;108.19;;
60116;Laerm;62818;49.394;8.686;2023-03-25T04:01:02;86.02;44.83;107.82;;
60116;Laerm;62818;49.394;8.686;2023-03-25T04:03:59;87.16;44.43;108.03;;
60116;Laerm;62818;49.394;8.686;2023-03-25T04:05:00;87.71;44.51;107.64;;
60116;Laerm;62818;49.394;8.686;2023-03-25T04:06:20;86.77;44.69;107.84;;
60116;Laerm;62818;49.394;8.686;2023-03-25T04:07:39;87.20;44.76;108.21;;
60116;Laerm;62818;49.394;8.686;2023-03-25T04:08:59;87.30;44.76;107.82;;
60116;Laerm;62818;49.394;8.686;2023-03-25T04:11:22;78.76;45.07;88.35;;
60116;Laerm;62818;49.394;8.686;2023-03-25T04:12:31;87.83;45.54;107.68;;
60116;Laerm;62818;49.394;8.686;2023-03-25T04:13:38;88.46;45.14;108.17;;
60116;Laerm;62818;49.394;8.686;2023-03-25T04:14:41;85.15;45.01;107.74;;
60116;Laerm;62818;49.394;8.686;2023-03-25T04:15:42;86.91;45.30;107.90;;
60116;Laerm;62818;49.394;8.686;2023-03-25T04:16:42;87.86;45.39;107.97;;
60116;Laerm;62818;49.394;8.686;2023-03-25T04:17:45;88.49;45.63;107.88;;
60116;Laerm;62818;49.394;8.686;2023-03-25T04:18:47;87.76;44.94;107.70;;
60116;Laerm;62818;49.394;8.686;2023-03-25T04:19:47;87.48;45.14;107.77;;
60116;Laerm;62818;49.394;8.686;2023-03-25T04:20:48;88.09;44.76;108.06;;
60116;Laerm;62818;49.394;8.686;2023-03-25T04:21:48;87.68;44.83;108.30;;
60116;Laerm;62818;49.394;8.686;2023-03-25T04:22:52;87.51;44.80;108.04;;
60116;Laerm;62818;49.394;8.686;2023-03-25T04:23:52;79.39;44.62;88.21;;
60116;Laerm;62818;49.394;8.686;2023-03-25T04:24:53;87.81;45.23;108.19;;
60116;Laerm;62818;49.394;8.686;2023-03-25T04:25:56;87.39;44.97;108.16;;
60116;Laerm;62818;49.394;8.686;2023-03-25T04:26:57;55.11;45.30;64.75;;
60116;Laerm;62818;49.394;8.686;2023-03-25T04:28:02;79.38;44.94;88.56;;
60116;Laerm;62818;49.394;8.686;2023-03-25T04:29:04;89.05;46.07;107.98;;
60116;Laerm;62818;49.394;8.686;2023-03-25T04:30:07;87.56;44.54;107.94;;
60116;Laerm;62818;49.394;8.686;2023-03-25T04:31:16;86.96;45.23;107.94;;
60116;Laerm;62818;49.394;8.686;2023-03-25T04:32:17;87.73;45.07;108.06;;
60116;Laerm;62818;49.394;8.686;2023-03-25T04:33:18;88.34;44.97;108.11;;
60116;Laerm;62818;49.394;8.686;2023-03-25T04:34:20;87.86;45.48;108.00;;
60116;Laerm;62818;49.394;8.686;2023-03-25T04:35:20;87.70;45.14;107.77;;
60116;Laerm;62818;49.394;8.686;2023-03-25T04:36:21;87.85;45.07;108.03;;
60116;Laerm;62818;49.394;8.686;2023-03-25T04:37:25;87.32;45.65;108.37;;
60116;Laerm;62818;49.394;8.686;2023-03-25T04:38:26;86.77;47.02;108.29;;
60116;Laerm;62818;49.394;8.686;2023-03-25T04:39:27;87.60;46.02;108.30;;
60116;Laerm;62818;49.394;8.686;2023-03-25T04:40:31;87.41;45.27;107.73;;
60116;Laerm;62818;49.394;8.686;2023-03-25T04:41:32;87.83;45.83;107.85;;
60116;Laerm;62818;49.394;8.686;2023-03-25T04:42:32;87.70;44.76;108.19;;
60116;Laerm;62818;49.394;8.686;2023-03-25T04:43:37;86.62;45.45;108.17;;
60116;Laerm;62818;49.394;8.686;2023-03-25T04:44:38;86.69;45.69;107.91;;
60116;Laerm;62818;49.394;8.686;2023-03-25T04:45:39;87.83;45.36;107.79;;
60116;Laerm;62818;49.394;8.686;2023-03-25T04:46:42;86.77;45.63;108.16;;
60116;Laerm;62818;49.394;8.686;2023-03-25T04:47:45;87.40;45.30;108.22;;
60116;Laerm;62818;49.394;8.686;2023-03-25T04:48:46;87.73;45.20;108.23;;
60116;Laerm;62818;49.394;8.686;2023-03-25T04:49:47;87.75;45.23;108.17;;
60116;Laerm;62818;49.394;8.686;2023-03-25T04:50:47;85.36;45.48;107.05;;
60116;Laerm;62818;49.394;8.686;2023-03-25T04:51:51;86.46;45.07;107.36;;
60116;Laerm;62818;49.394;8.686;2023-03-25T04:52:52;87.58;45.04;107.82;;
60116;Laerm;62818;49.394;8.686;2023-03-25T04:53:54;85.38;45.91;107.64;;
60116;Laerm;62818;49.394;8.686;2023-03-25T04:54:54;87.62;45.23;108.40;;
60116;Laerm;62818;49.394;8.686;2023-03-25T04:55:55;87.63;46.07;108.36;;
60116;Laerm;62818;49.394;8.686;2023-03-25T04:56:56;86.58;44.94;107.99;;
60116;Laerm;62818;49.394;8.686;2023-03-25T04:57:58;85.66;45.20;107.83;;
60116;Laerm;62818;49.394;8.686;2023-03-25T04:58:58;87.09;46.43;108.34;;
60116;Laerm;62818;49.394;8.686;2023-03-25T04:59:59;88.06;45.80;108.00;;
60116;Laerm;62818;49.394;8.686;2023-03-25T05:00:59;87.10;44.94;108.09;;
60116;Laerm;62818;49.394;8.686;2023-03-25T05:02:06;86.73;45.14;108.32;;
60116;Laerm;62818;49.394;8.686;2023-03-25T05:03:12;86.85;45.91;107.87;;
60116;Laerm;62818;49.394;8.686;2023-03-25T05:04:16;87.51;44.97;107.81;;
60116;Laerm;62818;49.394;8.686;2023-03-25T05:05:20;86.49;45.23;107.85;;
60116;Laerm;62818;49.394;8.686;2023-03-25T05:06:22;87.85;44.87;108.03;;
60116;Laerm;62818;49.394;8.686;2023-03-25T05:07:22;86.78;45.20;108.23;;
60116;Laerm;62818;49.394;8.686;2023-03-25T05:08:23;87.70;44.80;107.99;;
60116;Laerm;62818;49.394;8.686;2023-03-25T05:09:24;87.80;44.87;108.48;;
60116;Laerm;62818;49.394;8.686;2023-03-25T05:10:26;87.76;45.39;108.22;;
60116;Laerm;62818;49.394;8.686;2023-03-25T05:11:30;85.31;45.63;108.17;;
60116;Laerm;62818;49.394;8.686;2023-03-25T05:12:31;85.39;45.39;107.98;;
60116;Laerm;62818;49.394;8.686;2023-03-25T05:13:31;88.01;44.94;107.94;;
60116;Laerm;62818;49.394;8.686;2023-03-25T05:14:32;85.44;45.20;107.47;;
60116;Laerm;62818;49.394;8.686;2023-03-25T05:15:34;85.24;47.44;107.63;;
60116;Laerm;62818;49.394;8.686;2023-03-25T05:16:39;86.91;47.93;108.05;;
60116;Laerm;62818;49.394;8.686;2023-03-25T05:17:40;85.54;46.89;107.38;;
60116;Laerm;62818;49.394;8.686;2023-03-25T05:18:40;86.75;45.72;107.82;;
60116;Laerm;62818;49.394;8.686;2023-03-25T05:19:41;85.76;45.48;107.52;;
60116;Laerm;62818;49.394;8.686;2023-03-25T05:20:45;86.68;45.23;108.03;;
60116;Laerm;62818;49.394;8.686;2023-03-25T05:21:46;85.81;47.24;107.91;;
60116;Laerm;62818;49.394;8.686;2023-03-25T05:22:47;87.79;45.33;108.42;;
60116;Laerm;62818;49.394;8.686;2023-03-25T05:23:48;79.04;44.73;88.86;;
60116;Laerm;62818;49.394;8.686;2023-03-25T05:24:48;86.68;44.97;108.14;;
60116;Laerm;62818;49.394;8.686;2023-03-25T05:25:52;86.45;44.90;108.06;;
60116;Laerm;62818;49.394;8.686;2023-03-25T05:26:53;85.70;46.29;107.33;;
60116;Laerm;62818;49.394;8.686;2023-03-25T05:27:54;86.93;45.07;107.72;;
60116;Laerm;62818;49.394;8.686;2023-03-25T05:28:54;86.93;44.94;107.81;;
60116;Laerm;62818;49.394;8.686;2023-03-25T05:29:56;86.85;46.40;108.29;;
60116;Laerm;62818;49.394;8.686;2023-03-25T05:30:59;86.78;45.36;107.81;;
60116;Laerm;62818;49.394;8.686;2023-03-25T05:32:00;86.48;45.54;107.76;;
60116;Laerm;62818;49.394;8.686;2023-03-25T05:33:00;88.15;44.51;107.81;;
60116;Laerm;62818;49.394;8.686;2023-03-25T05:34:01;78.90;45.51;89.07;;
60116;Laerm;62818;49.394;8.686;2023-03-25T05:35:06;85.93;46.07;107.22;;
60116;Laerm;62818;49.394;8.686;2023-03-25T05:36:09;86.49;45.30;107.24;;
60116;Laerm;62818;49.394;8.686;2023-03-25T05:37:10;85.35;45.07;107.29;;
60116;Laerm;62818;49.394;8.686;2023-03-25T05:38:11;86.58;44.65;108.24;;
60116;Laerm;62818;49.394;8.686;2023-03-25T05:39:13;85.33;45.67;107.32;;
60116;Laerm;62818;49.394;8.686;2023-03-25T05:40:13;86.57;45.01;107.52;;
60116;Laerm;62818;49.394;8.686;2023-03-25T05:41:14;87.19;46.07;107.47;;
60116;Laerm;62818;49.394;8.686;2023-03-25T05:42:18;83.17;45.07;107.37;;
60116;Laerm;62818;49.394;8.686;2023-03-25T05:43:22;83.07;46.38;107.48;;
60116;Laerm;62818;49.394;8.686;2023-03-25T05:44:23;86.55;45.86;107.72;;
60116;Laerm;62818;49.394;8.686;2023-03-25T05:45:25;86.46;45.42;107.81;;
60116;Laerm;62818;49.394;8.686;2023-03-25T05:46:27;86.65;45.36;107.81;;
60116;Laerm;62818;49.394;8.686;2023-03-25T05:47:28;87.57;45.77;107.86;;
60116;Laerm;62818;49.394;8.686;2023-03-25T05:48:31;87.47;44.97;107.05;;
60116;Laerm;62818;49.394;8.686;2023-03-25T05:49:31;86.60;46.13;107.60;;
60116;Laerm;62818;49.394;8.686;2023-03-25T05:50:32;86.57;45.01;107.55;;
60116;Laerm;62818;49.394;8.686;2023-03-25T05:51:33;87.38;45.30;108.04;;
60116;Laerm;62818;49.394;8.686;2023-03-25T05:52:36;86.38;44.69;107.58;;
60116;Laerm;62818;49.394;8.686;2023-03-25T05:53:45;84.62;44.58;106.80;;
60116;Laerm;62818;49.394;8.686;2023-03-25T05:54:49;84.96;45.42;107.45;;
60116;Laerm;62818;49.394;8.686;2023-03-25T05:55:50;78.17;45.89;105.74;;
60116;Laerm;62818;49.394;8.686;2023-03-25T05:56:51;88.07;45.23;107.77;;
60116;Laerm;62818;49.394;8.686;2023-03-25T05:57:51;87.08;45.27;107.11;;
60116;Laerm;62818;49.394;8.686;2023-03-25T05:58:52;86.36;44.73;107.91;;
60116;Laerm;62818;49.394;8.686;2023-03-25T05:59:52;86.34;44.69;107.40;;
60116;Laerm;62818;49.394;8.686;2023-03-25T06:00:53;86.29;45.27;107.43;;
60116;Laerm;62818;49.394;8.686;2023-03-25T06:01:53;87.01;45.36;107.11;;
60116;Laerm;62818;49.394;8.686;2023-03-25T06:02:54;86.41;44.94;107.17;;
60116;Laerm;62818;49.394;8.686;2023-03-25T06:03:54;86.17;44.89;107.02;;
60116;Laerm;62818;49.394;8.686;2023-03-25T06:04:56;86.34;45.42;107.40;;
60116;Laerm;62818;49.394;8.686;2023-03-25T06:05:57;86.09;45.01;107.12;;
60116;Laerm;62818;49.394;8.686;2023-03-25T06:06:57;87.37;46.35;107.66;;
60116;Laerm;62818;49.394;8.686;2023-03-25T06:07:58;87.10;45.20;107.10;;
60116;Laerm;62818;49.394;8.686;2023-03-25T06:08:58;87.08;45.83;107.34;;
60116;Laerm;62818;49.394;8.686;2023-03-25T06:09:59;86.25;46.38;107.43;;
60116;Laerm;62818;49.394;8.686;2023-03-25T06:10:59;86.10;47.24;107.00;;
60116;Laerm;62818;49.394;8.686;2023-03-25T06:12:02;84.69;45.54;107.09;;
60116;Laerm;62818;49.394;8.686;2023-03-25T06:13:03;86.02;45.17;106.82;;
60116;Laerm;62818;49.394;8.686;2023-03-25T06:14:05;86.02;45.01;106.64;;
60116;Laerm;62818;49.394;8.686;2023-03-25T06:15:07;78.04;45.04;87.69;;
60116;Laerm;62818;49.394;8.686;2023-03-25T06:16:08;87.14;45.23;107.11;;
60116;Laerm;62818;49.394;8.686;2023-03-25T06:17:09;86.95;45.14;106.91;;
60116;Laerm;62818;49.394;8.686;2023-03-25T06:18:10;85.91;45.33;107.01;;
60116;Laerm;62818;49.394;8.686;2023-03-25T06:19:10;86.65;45.11;106.79;;
60116;Laerm;62818;49.394;8.686;2023-03-25T06:20:14;77.83;46.93;91.24;;
60116;Laerm;62818;49.394;8.686;2023-03-25T06:21:17;84.34;45.39;106.78;;
60116;Laerm;62818;49.394;8.686;2023-03-25T06:22:19;84.49;45.75;106.50;;
60116;Laerm;62818;49.394;8.686;2023-03-25T06:23:24;77.80;46.57;86.95;;
60116;Laerm;62818;49.394;8.686;2023-03-25T06:24:25;77.86;45.39;88.10;;
60116;Laerm;62818;49.394;8.686;2023-03-25T06:25:26;85.49;44.76;107.04;;
60116;Laerm;62818;49.394;8.686;2023-03-25T06:26:28;86.46;44.31;106.57;;
60116;Laerm;62818;49.394;8.686;2023-03-25T06:27:28;77.93;44.39;86.81;;
60116;Laerm;62818;49.394;8.686;2023-03-25T06:28:33;83.85;45.33;105.56;;
60116;Laerm;62818;49.394;8.686;2023-03-25T06:29:35;86.08;45.91;106.62;;